Time;durP1;ratioP1;P1;durP2;ratioP2;P2;SDS_P1;SDS_P2;PMS_P1;PMS_P2;Temp;Humidity;BMP_temperature;BMP_pressure;BME280_temperature;BME280_humidity;BME280_pressure;Samples;Min_cycle;Max_cycle;Signal;HPM_P1;HPM_P2
2021/03/11 00:01:14;;;;;;;29.83;21.97;;;7.40;99.90;;;;;;5099644;28;20217;-82
2021/03/11 00:03:40;;;;;;;32.77;21.80;;;7.40;99.90;;;;;;5099428;28;20202;-83
2021/03/11 00:06:07;;;;;;;32.40;22.23;;;7.40;99.90;;;;;;5100107;28;20197;-81
2021/03/11 00:08:33;;;;;;;32.90;21.67;;;7.40;99.90;;;;;;5100376;28;20212;-81
2021/03/11 00:10:59;;;;;;;26.90;18.10;;;7.40;99.90;;;;;;5101892;28;20200;-79
2021/03/11 00:13:26;;;;;;;27.97;20.33;;;7.40;99.90;;;;;;5100911;28;20308;-80
2021/03/11 00:15:52;;;;;;;27.00;19.47;;;7.50;99.90;;;;;;5102311;28;20212;-81
2021/03/11 00:18:19;;;;;;;27.57;20.90;;;7.50;99.90;;;;;;5102247;28;20214;-81
2021/03/11 00:20:46;;;;;;;25.23;18.90;;;7.60;99.90;;;;;;5099990;28;20213;-81
2021/03/11 00:23:12;;;;;;;26.40;19.07;;;7.50;99.90;;;;;;5099816;28;21588;-81
2021/03/11 00:25:38;;;;;;;26.57;18.23;;;7.50;99.90;;;;;;5098198;28;20729;-80
2021/03/11 00:28:06;;;;;;;26.97;19.40;;;7.60;99.90;;;;;;5104087;28;20201;-82
2021/03/11 00:30:33;;;;;;;25.23;18.07;;;7.60;99.90;;;;;;5100033;28;20209;-81
2021/03/11 00:32:59;;;;;;;26.87;19.37;;;7.60;99.90;;;;;;5099342;28;20252;-81
2021/03/11 00:35:26;;;;;;;25.43;18.77;;;7.60;99.90;;;;;;5099964;28;20197;-81
2021/03/11 00:37:53;;;;;;;27.50;18.33;;;7.60;99.90;;;;;;5096745;28;20335;-80
2021/03/11 00:40:21;;;;;;;22.97;17.53;;;7.80;99.90;;;;;;5101970;28;20208;-81
2021/03/11 00:42:48;;;;;;;26.23;19.33;;;7.70;99.90;;;;;;5098703;28;20282;-81
2021/03/11 00:45:14;;;;;;;25.73;17.40;;;7.70;99.90;;;;;;5097819;28;20250;-82
2021/03/11 00:47:42;;;;;;;25.13;17.93;;;7.70;99.90;;;;;;5098059;28;20201;-82
2021/03/11 00:50:11;;;;;;;24.73;18.80;;;7.70;99.90;;;;;;5098832;28;20292;-85
2021/03/11 00:52:38;;;;;;;26.30;19.13;;;7.70;99.90;;;;;;5098185;28;20209;-81
2021/03/11 00:55:08;;;;;;;27.67;19.63;;;7.80;99.90;;;;;;5099436;28;20205;-82
2021/03/11 00:57:35;;;;;;;23.03;17.73;;;7.80;99.90;;;;;;5095926;28;20644;-81
2021/03/11 01:00:02;;;;;;;24.37;17.93;;;7.80;99.90;;;;;;5097907;28;21297;-80
2021/03/11 01:02:28;;;;;;;24.83;17.87;;;7.90;99.90;;;;;;5100576;28;20205;-80
2021/03/11 01:04:54;;;;;;;24.80;18.23;;;7.90;99.90;;;;;;5099501;28;20201;-81
2021/03/11 01:07:21;;;;;;;25.73;18.30;;;7.90;99.90;;;;;;5098093;28;20209;-81
2021/03/11 01:09:48;;;;;;;29.47;20.13;;;7.90;99.90;;;;;;5096491;28;20278;-81
2021/03/11 01:12:15;;;;;;;28.90;20.67;;;7.90;99.90;;;;;;5100106;28;20551;-82
2021/03/11 01:14:42;;;;;;;31.93;21.50;;;7.90;99.90;;;;;;5100066;28;20201;-82
2021/03/11 01:17:09;;;;;;;31.80;22.93;;;7.90;99.90;;;;;;5102991;28;20194;-85
2021/03/11 01:19:37;;;;;;;30.47;22.93;;;7.90;99.90;;;;;;5098109;28;20241;-82
2021/03/11 01:22:03;;;;;;;34.50;24.17;;;8.00;99.90;;;;;;5101414;28;20657;-82
2021/03/11 01:24:30;;;;;;;35.50;23.67;;;7.80;99.90;;;;;;5105042;28;20210;-83
2021/03/11 01:26:58;;;;;;;33.70;22.90;;;7.80;99.90;;;;;;5103493;28;20225;-83
2021/03/11 01:29:24;;;;;;;29.47;22.50;;;7.80;99.90;;;;;;5101882;28;20206;-85
2021/03/11 01:31:50;;;;;;;32.57;23.10;;;7.80;99.90;;;;;;5104352;28;21108;-84
2021/03/11 01:34:17;;;;;;;34.17;24.80;;;7.80;99.90;;;;;;5099881;28;20620;-82
2021/03/11 01:36:43;;;;;;;34.83;24.10;;;7.80;99.90;;;;;;5099327;28;20216;-83
2021/03/11 01:39:09;;;;;;;33.17;24.17;;;7.90;99.90;;;;;;5102069;28;20233;-83
2021/03/11 01:41:36;;;;;;;39.07;26.10;;;7.90;99.90;;;;;;5101655;28;20198;-83
2021/03/11 01:44:03;;;;;;;36.43;25.60;;;7.90;99.90;;;;;;5100366;28;20240;-83
2021/03/11 01:46:30;;;;;;;38.53;27.03;;;8.00;99.90;;;;;;5101225;28;20206;-83
2021/03/11 01:48:56;;;;;;;36.83;26.60;;;8.00;99.90;;;;;;5101571;28;20299;-83
2021/03/11 01:51:24;;;;;;;38.73;24.37;;;8.00;99.90;;;;;;5102826;28;20205;-82
2021/03/11 01:53:51;;;;;;;36.00;26.53;;;8.00;99.90;;;;;;5102728;28;20208;-82
2021/03/11 01:56:18;;;;;;;39.23;26.63;;;8.10;99.90;;;;;;5102829;28;20209;-82
2021/03/11 01:58:44;;;;;;;40.67;28.57;;;8.10;99.90;;;;;;5101045;28;20233;-82
2021/03/11 02:01:12;;;;;;;42.90;27.33;;;8.10;99.90;;;;;;5103849;28;20198;-81
2021/03/11 02:03:38;;;;;;;39.50;26.77;;;8.10;99.90;;;;;;5102429;28;20202;-82
2021/03/11 02:06:05;;;;;;;43.60;27.67;;;8.10;99.90;;;;;;5101582;28;20277;-81
2021/03/11 02:08:31;;;;;;;43.73;28.27;;;8.00;99.90;;;;;;5098932;28;20210;-82
2021/03/11 02:10:58;;;;;;;47.47;29.33;;;8.00;99.90;;;;;;5100576;28;20213;-82
2021/03/11 02:13:32;;;;;;;49.47;30.90;;;8.00;99.90;;;;;;5099890;28;20285;-81
2021/03/11 02:16:09;;;;;;;43.10;28.60;;;8.00;99.90;;;;;;5100697;28;20205;-81
2021/03/11 02:18:43;;;;;;;46.83;31.17;;;8.00;99.90;;;;;;5102658;28;20214;-83
2021/03/11 02:21:12;;;;;;;44.03;27.47;;;8.10;99.90;;;;;;5103198;28;20193;-81
2021/03/11 02:24:11;;;;;;;49.33;30.40;;;8.00;99.90;;;;;;5100843;28;20208;-82
2021/03/11 02:27:10;;;;;;;45.13;29.17;;;8.00;99.90;;;;;;5100703;28;20235;-80
2021/03/11 02:29:39;;;;;;;46.13;30.57;;;8.00;99.90;;;;;;5046965;28;20292;-81
2021/03/11 02:32:09;;;;;;;45.90;30.13;;;8.00;99.90;;;;;;5102347;28;20248;-81
2021/03/11 02:34:38;;;;;;;52.90;31.00;;;8.00;99.90;;;;;;5101359;28;20255;-81
2021/03/11 02:37:10;;;;;;;47.53;31.30;;;8.00;99.90;;;;;;5100031;28;20194;-82
2021/03/11 02:39:40;;;;;;;40.23;26.57;;;8.00;99.90;;;;;;5100863;28;20221;-80
2021/03/11 02:42:08;;;;;;;47.60;30.53;;;8.00;99.90;;;;;;5100917;28;20194;-81
2021/03/11 02:44:36;;;;;;;45.00;30.10;;;8.00;99.90;;;;;;5103678;28;20802;-81
2021/03/11 02:47:04;;;;;;;48.03;31.37;;;8.00;99.90;;;;;;5100376;28;20194;-81
2021/03/11 02:49:31;;;;;;;45.13;29.83;;;8.10;99.90;;;;;;5101003;28;20583;-83
2021/03/11 02:51:57;;;;;;;46.40;31.23;;;8.10;99.90;;;;;;5102169;28;20201;-83
2021/03/11 02:54:25;;;;;;;47.97;31.87;;;8.10;99.90;;;;;;5100438;28;20212;-82
2021/03/11 02:56:53;;;;;;;45.33;30.43;;;8.10;99.90;;;;;;5105032;28;20255;-82
2021/03/11 02:59:20;;;;;;;44.37;29.57;;;8.10;99.90;;;;;;5101394;28;20230;-81
2021/03/11 03:01:48;;;;;;;51.10;29.93;;;8.10;99.90;;;;;;5100856;28;20205;-81
2021/03/11 03:04:17;;;;;;;44.47;29.33;;;8.10;99.90;;;;;;5101254;28;20204;-83
2021/03/11 03:06:44;;;;;;;40.37;27.77;;;8.10;99.90;;;;;;5099519;28;20209;-83
2021/03/11 03:09:11;;;;;;;42.60;28.33;;;8.10;99.90;;;;;;5101258;28;20283;-85
2021/03/11 03:11:39;;;;;;;36.63;27.07;;;8.20;99.90;;;;;;5093410;28;20236;-84
2021/03/11 03:14:07;;;;;;;41.10;28.30;;;8.20;99.90;;;;;;5098550;28;20274;-85
2021/03/11 03:16:36;;;;;;;39.40;26.83;;;8.20;99.90;;;;;;5097846;28;20216;-84
2021/03/11 03:19:03;;;;;;;37.33;26.37;;;8.30;99.90;;;;;;5098847;28;20680;-85
2021/03/11 03:21:31;;;;;;;36.13;26.27;;;8.30;99.90;;;;;;5100747;28;20202;-83
2021/03/11 03:23:59;;;;;;;36.97;23.30;;;8.40;99.90;;;;;;5103003;28;20198;-86
2021/03/11 03:26:25;;;;;;;38.07;26.50;;;8.30;99.90;;;;;;5101543;28;20666;-85
2021/03/11 03:28:51;;;;;;;34.83;24.47;;;8.40;99.90;;;;;;5106001;28;20306;-87
2021/03/11 03:31:18;;;;;;;36.33;24.07;;;8.40;99.90;;;;;;5109107;28;20702;-87
2021/03/11 03:33:44;;;;;;;34.77;23.33;;;8.50;99.90;;;;;;5096421;28;20212;-86
2021/03/11 03:36:11;;;;;;;32.33;24.93;;;8.50;99.90;;;;;;5099529;28;20214;-87
2021/03/11 03:38:38;;;;;;;31.13;22.97;;;8.60;99.90;;;;;;5096839;28;20222;-87
2021/03/11 03:41:05;;;;;;;31.30;23.07;;;8.60;99.90;;;;;;5096745;28;20241;-87
2021/03/11 03:43:34;;;;;;;29.60;22.03;;;8.70;99.90;;;;;;5099613;28;20259;-88
2021/03/11 03:46:05;;;;;;;30.47;21.43;;;8.70;99.90;;;;;;5098845;28;20291;-87
2021/03/11 03:48:38;;;;;;;31.37;21.83;;;8.70;99.90;;;;;;5098701;28;20224;-85
2021/03/11 03:51:06;;;;;;;29.70;21.83;;;8.70;99.90;;;;;;5099999;28;20205;-85
2021/03/11 03:53:37;;;;;;;34.37;23.50;;;8.90;99.90;;;;;;5098597;28;20202;-85
2021/03/11 03:56:10;;;;;;;30.10;21.63;;;8.70;99.90;;;;;;5097115;28;20206;-85
2021/03/11 03:58:37;;;;;;;34.10;22.37;;;8.70;99.90;;;;;;5096428;28;20231;-87
2021/03/11 04:01:04;;;;;;;31.80;21.57;;;8.70;99.90;;;;;;5098182;28;20199;-84
2021/03/11 04:03:33;;;;;;;34.00;22.77;;;8.60;99.90;;;;;;5096667;28;20560;-83
2021/03/11 04:06:00;;;;;;;32.17;22.73;;;8.70;99.90;;;;;;5097276;28;20208;-84
2021/03/11 04:08:28;;;;;;;29.23;22.37;;;8.60;99.90;;;;;;5098473;28;20194;-85
2021/03/11 04:10:56;;;;;;;29.63;20.83;;;8.60;99.90;;;;;;5098290;28;20304;-84
2021/03/11 04:13:25;;;;;;;29.70;21.73;;;8.70;99.90;;;;;;5097354;28;20208;-84
2021/03/11 04:15:51;;;;;;;29.27;21.47;;;8.70;99.90;;;;;;5098043;28;20205;-87
2021/03/11 04:18:18;;;;;;;29.73;21.20;;;8.80;99.90;;;;;;5099800;28;20251;-86
2021/03/11 04:20:45;;;;;;;30.90;21.50;;;8.90;99.90;;;;;;5097134;28;20202;-84
2021/03/11 04:23:12;;;;;;;29.40;21.40;;;8.80;99.90;;;;;;5096210;28;20200;-84
2021/03/11 04:25:39;;;;;;;27.73;20.57;;;8.90;99.90;;;;;;5096968;28;20657;-85
2021/03/11 04:28:06;;;;;;;27.13;19.07;;;8.90;99.90;;;;;;5094229;28;20210;-83
2021/03/11 04:30:33;;;;;;;25.43;19.20;;;8.90;99.90;;;;;;5096870;28;20246;-84
2021/03/11 04:33:00;;;;;;;26.97;18.30;;;9.00;99.90;;;;;;5097738;28;20300;-84
2021/03/11 04:35:26;;;;;;;24.97;18.50;;;9.10;99.90;;;;;;5097110;28;20292;-84
2021/03/11 04:37:53;;;;;;;25.37;18.67;;;9.10;99.90;;;;;;5099914;28;20206;-83
2021/03/11 04:40:20;;;;;;;26.93;18.93;;;9.20;99.90;;;;;;5098553;28;20270;-84
2021/03/11 04:42:47;;;;;;;22.60;17.50;;;9.20;99.90;;;;;;5099055;28;20567;-86
2021/03/11 04:45:14;;;;;;;25.83;18.42;;;9.20;99.90;;;;;;5098252;28;20212;-86
2021/03/11 04:47:42;;;;;;;25.73;16.97;;;9.20;99.90;;;;;;5096602;28;20205;-84
2021/03/11 04:50:10;;;;;;;20.67;13.73;;;9.40;99.90;;;;;;5096072;28;20257;-83
2021/03/11 04:52:37;;;;;;;23.40;15.57;;;9.50;99.90;;;;;;5097946;28;20201;-84
2021/03/11 04:55:05;;;;;;;22.87;14.33;;;9.60;99.90;;;;;;5096069;28;20202;-87
2021/03/11 04:57:31;;;;;;;20.73;14.00;;;9.60;99.90;;;;;;5096853;28;20200;-85
2021/03/11 05:00:00;;;;;;;19.03;14.63;;;9.70;99.90;;;;;;5098251;28;20282;-86
2021/03/11 05:02:29;;;;;;;17.83;14.13;;;9.70;99.90;;;;;;5097631;28;20251;-85
2021/03/11 05:04:57;;;;;;;18.50;13.43;;;9.80;99.90;;;;;;5098780;28;20201;-85
2021/03/11 05:07:24;;;;;;;15.43;12.60;;;9.80;99.90;;;;;;5096071;28;20204;-86
2021/03/11 05:09:50;;;;;;;16.45;11.48;;;9.90;99.90;;;;;;5096513;28;20219;-85
2021/03/11 05:12:16;;;;;;;15.55;11.70;;;9.90;99.90;;;;;;5097359;28;20285;-81
2021/03/11 05:14:43;;;;;;;16.98;11.57;;;10.10;99.90;;;;;;5101417;28;20251;-85
2021/03/11 05:17:09;;;;;;;12.93;10.45;;;10.10;99.90;;;;;;5097611;28;20258;-86
2021/03/11 05:19:35;;;;;;;11.63;9.55;;;10.20;99.90;;;;;;5101027;28;20221;-86
2021/03/11 05:22:03;;;;;;;14.03;9.70;;;10.20;99.90;;;;;;5100235;28;20281;-86
2021/03/11 05:24:30;;;;;;;13.88;10.50;;;10.20;99.90;;;;;;5096293;28;20235;-85
2021/03/11 05:26:56;;;;;;;12.18;9.75;;;10.20;99.90;;;;;;5098613;28;20210;-86
2021/03/11 05:29:22;;;;;;;11.10;9.48;;;10.30;99.90;;;;;;5098876;28;20232;-85
2021/03/11 05:31:49;;;;;;;15.80;12.10;;;10.30;99.90;;;;;;5099181;28;20202;-85
2021/03/11 05:34:15;;;;;;;14.00;10.80;;;10.20;99.90;;;;;;5099040;28;20212;-84
2021/03/11 05:36:41;;;;;;;17.55;12.23;;;10.20;99.90;;;;;;5096758;28;20206;-83
2021/03/11 05:39:09;;;;;;;14.90;12.30;;;10.10;99.90;;;;;;5095848;28;20598;-83
2021/03/11 05:41:38;;;;;;;17.05;12.07;;;10.00;99.90;;;;;;5094895;28;20231;-83
2021/03/11 05:44:06;;;;;;;15.73;12.35;;;9.90;99.90;;;;;;5095404;28;20713;-83
2021/03/11 05:46:34;;;;;;;18.10;11.75;;;9.90;99.90;;;;;;5094662;28;20206;-81
2021/03/11 05:49:01;;;;;;;15.95;11.35;;;9.90;99.90;;;;;;5096280;28;20688;-80
2021/03/11 05:51:29;;;;;;;17.23;12.02;;;9.90;99.90;;;;;;5096539;28;20627;-81
2021/03/11 05:53:57;;;;;;;16.58;11.70;;;10.00;99.90;;;;;;5097980;28;20198;-80
2021/03/11 05:56:25;;;;;;;14.82;9.90;;;10.00;99.90;;;;;;5096817;28;20665;-81
2021/03/11 05:58:54;;;;;;;14.90;10.55;;;10.10;99.90;;;;;;5096337;28;20221;-80
2021/03/11 06:01:21;;;;;;;18.52;10.43;;;10.10;99.90;;;;;;5097709;28;20205;-81
2021/03/11 06:03:49;;;;;;;13.77;9.93;;;10.10;99.90;;;;;;5100300;28;20202;-79
2021/03/11 06:06:16;;;;;;;14.13;10.52;;;10.10;99.90;;;;;;5099779;28;20661;-79
2021/03/11 06:08:43;;;;;;;13.25;9.27;;;10.10;99.90;;;;;;5099220;28;20206;-79
2021/03/11 06:11:10;;;;;;;11.30;8.85;;;10.10;99.90;;;;;;5098965;28;20206;-81
2021/03/11 06:13:40;;;;;;;13.82;9.30;;;10.20;99.90;;;;;;5100116;28;20204;-80
2021/03/11 06:16:10;;;;;;;11.02;8.43;;;10.20;99.90;;;;;;5100526;28;20206;-79
2021/03/11 06:18:38;;;;;;;13.90;7.90;;;10.30;99.90;;;;;;5098765;28;20202;-80
2021/03/11 06:21:05;;;;;;;14.80;8.50;;;10.30;99.90;;;;;;5099493;28;20255;-80
2021/03/11 06:23:31;;;;;;;13.65;7.95;;;10.40;99.90;;;;;;5100527;28;20214;-81
2021/03/11 06:25:58;;;;;;;9.45;7.28;;;10.50;99.90;;;;;;5099438;28;20657;-82
2021/03/11 06:28:54;;;;;;;9.20;6.38;;;10.50;99.90;;;;;;5100521;28;20209;-81
2021/03/11 06:31:23;;;;;;;9.02;6.43;;;10.60;99.90;;;;;;5099458;28;20204;-81
2021/03/11 06:33:52;;;;;;;10.45;6.05;;;10.60;99.90;;;;;;5098409;28;20251;-82
2021/03/11 06:36:19;;;;;;;7.05;5.40;;;10.60;99.90;;;;;;5098374;28;20202;-83
2021/03/11 06:38:46;;;;;;;8.02;5.95;;;10.70;99.90;;;;;;5102326;28;20228;-81
2021/03/11 06:41:12;;;;;;;8.45;4.80;;;10.60;99.90;;;;;;5100743;28;20205;-82
2021/03/11 06:43:54;;;;;;;8.07;4.80;;;10.70;99.90;;;;;;5100033;28;20194;-82
2021/03/11 06:46:21;;;;;;;6.53;4.57;;;10.80;99.90;;;;;;5098901;28;20292;-81
2021/03/11 06:48:48;;;;;;;5.32;4.28;;;10.80;99.90;;;;;;5100054;28;20202;-82
2021/03/11 06:51:19;;;;;;;8.30;4.50;;;10.90;99.90;;;;;;5099672;28;20205;-82
2021/03/11 06:53:57;;;;;;;6.68;4.55;;;10.90;99.90;;;;;;5098757;28;20216;-82
2021/03/11 06:56:24;;;;;;;10.85;5.25;;;11.00;99.90;;;;;;5097157;28;20237;-83
2021/03/11 06:58:59;;;;;;;7.18;3.78;;;10.90;99.90;;;;;;5098181;28;20233;-82
2021/03/11 07:01:27;;;;;;;6.40;3.88;;;10.90;99.90;;;;;;5097523;28;20891;-81
2021/03/11 07:03:54;;;;;;;8.73;3.67;;;10.90;99.90;;;;;;5099798;28;20206;-81
2021/03/11 07:06:31;;;;;;;11.27;4.18;;;10.90;99.90;;;;;;5098548;28;20201;-82
2021/03/11 07:08:58;;;;;;;7.88;3.22;;;11.00;99.90;;;;;;5099639;28;20236;-81
2021/03/11 07:11:25;;;;;;;6.68;3.50;;;11.10;99.90;;;;;;5098873;28;20221;-81
2021/03/11 07:13:53;;;;;;;9.65;3.97;;;11.20;99.90;;;;;;5097320;28;20201;-81
2021/03/11 07:16:21;;;;;;;8.63;3.47;;;11.20;99.90;;;;;;5098357;28;20258;-80
2021/03/11 07:18:48;;;;;;;11.52;3.00;;;11.30;99.90;;;;;;5098510;28;20212;-81
2021/03/11 07:21:42;;;;;;;11.70;3.35;;;11.40;99.90;;;;;;5097908;28;20251;-82
2021/03/11 07:24:10;;;;;;;14.90;2.75;;;11.50;99.90;;;;;;5097303;28;20206;-84
2021/03/11 07:26:37;;;;;;;8.20;3.80;;;11.40;99.90;;;;;;5095969;28;20205;-83
2021/03/11 07:29:19;;;;;;;19.50;3.75;;;11.60;99.90;;;;;;5099862;28;20202;-83
2021/03/11 07:31:54;;;;;;;7.13;3.25;;;11.40;99.90;;;;;;5098999;28;20241;-81
2021/03/11 07:34:23;;;;;;;11.73;3.78;;;11.40;99.90;;;;;;5098435;28;20209;-82
2021/03/11 07:36:51;;;;;;;11.50;3.20;;;11.40;99.90;;;;;;5099650;28;20209;-82
2021/03/11 07:39:20;;;;;;;20.27;3.40;;;11.40;99.90;;;;;;5098879;28;20244;-82
2021/03/11 07:41:48;;;;;;;9.15;3.15;;;11.50;99.90;;;;;;5098183;28;20239;-84
2021/03/11 07:44:14;;;;;;;16.27;3.33;;;11.50;99.90;;;;;;5098685;28;20209;-82
2021/03/11 07:46:40;;;;;;;17.85;3.83;;;11.50;99.90;;;;;;5097175;28;20230;-81
2021/03/11 07:49:09;;;;;;;18.45;4.45;;;11.70;99.90;;;;;;5100572;28;20202;-82
2021/03/11 07:51:36;;;;;;;19.77;4.38;;;11.80;99.90;;;;;;5095859;28;20202;-80
2021/03/11 07:54:03;;;;;;;14.48;4.68;;;12.10;99.90;;;;;;5099966;28;20206;-84
2021/03/11 07:56:29;;;;;;;21.70;5.40;;;12.20;99.90;;;;;;5101485;28;20204;-81
2021/03/11 07:59:02;;;;;;;26.48;5.75;;;12.20;99.90;;;;;;5097648;28;20230;-81
2021/03/11 08:01:33;;;;;;;30.20;6.30;;;12.20;99.90;;;;;;5099175;28;21013;-83
2021/03/11 08:04:00;;;;;;;24.30;5.05;;;12.40;99.90;;;;;;5099628;28;20330;-83
2021/03/11 08:06:29;;;;;;;29.60;6.47;;;12.90;99.90;;;;;;5097211;28;20672;-81
2021/03/11 08:08:55;;;;;;;22.75;6.07;;;12.90;99.90;;;;;;5098887;28;20209;-83
2021/03/11 08:11:33;;;;;;;29.77;7.00;;;12.90;99.90;;;;;;5097629;28;20210;-84
2021/03/11 08:14:19;;;;;;;32.97;7.45;;;13.00;99.90;;;;;;5096905;28;20193;-83
2021/03/11 08:16:46;;;;;;;31.08;6.95;;;13.10;99.90;;;;;;5099505;28;20206;-83
2021/03/11 08:19:50;;;;;;;19.77;5.97;;;13.10;99.90;;;;;;5098253;28;20237;-82
2021/03/11 08:22:55;;;;;;;30.08;6.00;;;12.80;99.90;;;;;;5100077;28;20204;-81
2021/03/11 08:25:42;;;;;;;27.27;6.38;;;12.60;99.90;;;;;;5097552;28;20285;-84
2021/03/11 08:28:47;;;;;;;33.20;6.68;;;12.80;99.90;;;;;;5101380;28;20262;-84
2021/03/11 08:31:14;;;;;;;29.63;5.68;;;12.80;99.90;;;;;;5100162;28;20667;-84
2021/03/11 08:33:48;;;;;;;27.42;6.15;;;12.80;99.90;;;;;;5096957;28;20204;-83
2021/03/11 08:36:37;;;;;;;20.27;6.03;;;13.30;99.90;;;;;;5096588;28;20198;-82
2021/03/11 08:39:33;;;;;;;28.52;6.05;;;13.40;99.90;;;;;;5098328;28;20274;-83
2021/03/11 08:42:48;;;;;;;24.27;5.10;;;14.00;99.90;;;;;;5098502;28;20232;-84
2021/03/11 08:46:02;;;;;;;23.35;7.05;;;14.00;99.90;;;;;;5098128;28;20687;-83
2021/03/11 08:48:40;;;;;;;20.65;5.18;;;13.20;99.90;;;;;;5097383;28;20209;-81
2021/03/11 08:51:09;;;;;;;22.60;5.63;;;12.80;99.90;;;;;;5100316;28;20652;-80
2021/03/11 08:53:47;;;;;;;24.38;5.38;;;12.50;99.90;;;;;;5097987;28;20193;-82
2021/03/11 08:56:44;;;;;;;22.42;5.18;;;12.50;99.90;;;;;;5098542;28;20292;-84
2021/03/11 08:59:16;;;;;;;26.17;6.10;;;12.90;99.90;;;;;;5095743;28;20237;-84
2021/03/11 09:01:45;;;;;;;22.02;5.47;;;12.70;99.90;;;;;;5098344;28;20198;-83
2021/03/11 09:04:42;;;;;;;34.22;5.78;;;13.00;99.90;;;;;;5099298;28;20229;-84
2021/03/11 09:07:27;;;;;;;25.95;5.47;;;12.90;99.90;;;;;;5028133;28;20197;-82
2021/03/11 09:09:53;;;;;;;27.10;5.63;;;12.90;99.90;;;;;;5092463;28;20232;-84
2021/03/11 09:12:21;;;;;;;22.60;5.57;;;12.70;99.90;;;;;;5103270;28;20330;-85
2021/03/11 09:14:49;;;;;;;23.33;5.75;;;13.20;99.90;;;;;;5091990;28;20206;-85
2021/03/11 09:17:17;;;;;;;21.45;5.35;;;14.30;99.90;;;;;;5091527;28;20251;-86
2021/03/11 09:19:45;;;;;;;26.45;5.95;;;15.20;99.90;;;;;;5092276;28;20317;-89
2021/03/11 09:22:24;;;;;;;21.17;5.80;;;15.60;99.90;;;;;;5093235;28;20289;-88
2021/03/11 09:25:21;;;;;;;27.05;5.55;;;15.60;99.90;;;;;;5094774;28;20607;-87
2021/03/11 09:27:55;;;;;;;22.23;4.90;;;15.60;99.90;;;;;;5091805;28;20685;-86
2021/03/11 09:30:25;;;;;;;20.70;5.03;;;15.30;99.90;;;;;;5093711;28;20261;-85
2021/03/11 09:32:52;;;;;;;34.72;6.07;;;15.20;99.90;;;;;;5097268;28;20202;-84
2021/03/11 09:35:19;;;;;;;22.80;5.68;;;14.80;99.90;;;;;;5099191;28;20206;-85
2021/03/11 09:37:54;;;;;;;22.50;5.22;;;14.40;99.90;;;;;;5103242;28;20292;-89
2021/03/11 09:40:27;;;;;;;21.55;5.20;;;14.10;99.90;;;;;;5097305;28;20221;-81
2021/03/11 09:43:15;;;;;;;25.27;5.68;;;13.90;99.90;;;;;;5096894;28;20212;-81
2021/03/11 09:45:45;;;;;;;26.75;5.18;;;13.80;99.90;;;;;;5085601;28;20235;-87
2021/03/11 09:48:16;;;;;;;28.17;5.88;;;13.50;99.90;;;;;;5099903;28;20682;-89
2021/03/11 09:50:58;;;;;;;20.63;4.82;;;13.60;99.90;;;;;;5097731;28;20224;-85
2021/03/11 09:53:32;;;;;;;25.42;5.47;;;13.80;99.90;;;;;;5097302;28;20214;-83
2021/03/11 09:55:58;;;;;;;23.52;5.07;;;13.90;99.90;;;;;;5096952;28;20202;-83
2021/03/11 09:58:25;;;;;;;27.15;5.68;;;13.90;99.90;;;;;;5096619;28;20209;-82
2021/03/11 10:00:52;;;;;;;23.05;4.97;;;13.80;99.90;;;;;;5096451;28;20626;-81
2021/03/11 10:03:23;;;;;;;26.27;5.60;;;13.90;99.90;;;;;;5096472;28;20691;-82
2021/03/11 10:05:58;;;;;;;27.02;6.00;;;13.90;99.90;;;;;;5096769;28;20190;-81
2021/03/11 10:08:30;;;;;;;23.63;5.63;;;13.90;99.90;;;;;;5096435;28;20678;-80
2021/03/11 10:11:08;;;;;;;17.65;4.38;;;13.90;99.90;;;;;;5096452;28;20216;-81
2021/03/11 10:13:40;;;;;;;29.13;5.35;;;13.70;99.90;;;;;;5096897;28;20202;-80
2021/03/11 10:16:08;;;;;;;19.30;4.55;;;13.50;99.90;;;;;;5095068;28;20256;-87
2021/03/11 10:18:35;;;;;;;19.45;5.22;;;13.40;99.90;;;;;;5097068;28;20289;-80
2021/03/11 10:21:07;;;;;;;21.05;5.07;;;13.30;99.90;;;;;;5096192;28;20253;-81
2021/03/11 10:23:35;;;;;;;25.75;6.20;;;13.00;99.90;;;;;;5096578;28;20543;-84
2021/03/11 10:26:20;;;;;;;24.63;5.38;;;13.00;99.90;;;;;;5096381;28;20210;-83
2021/03/11 10:28:48;;;;;;;21.77;4.95;;;12.90;99.90;;;;;;5096975;28;20206;-84
2021/03/11 10:31:16;;;;;;;23.35;5.10;;;13.00;99.90;;;;;;5095984;28;20574;-81
2021/03/11 10:33:43;;;;;;;17.75;4.75;;;13.10;99.90;;;;;;5095800;28;20210;-82
2021/03/11 10:36:15;;;;;;;18.45;3.85;;;13.30;99.90;;;;;;5081871;28;20213;-83
2021/03/11 10:38:42;;;;;;;13.27;3.72;;;13.30;99.90;;;;;;5082323;28;20242;-81
2021/03/11 10:41:16;;;;;;;19.42;4.07;;;13.30;99.90;;;;;;5095976;28;20222;-79
2021/03/11 10:43:44;;;;;;;20.52;4.22;;;13.40;99.90;;;;;;5075102;28;20693;-81
2021/03/11 10:46:17;;;;;;;22.00;4.80;;;13.50;99.90;;;;;;5096606;28;20198;-85
2021/03/11 10:48:51;;;;;;;16.42;4.30;;;13.50;99.90;;;;;;5101939;28;20190;-83
2021/03/11 10:51:23;;;;;;;20.88;4.35;;;13.50;99.90;;;;;;5097672;28;20198;-80
2021/03/11 10:53:49;;;;;;;23.15;4.75;;;13.50;99.90;;;;;;5098242;28;20243;-82
2021/03/11 10:56:16;;;;;;;25.25;4.85;;;13.50;99.90;;;;;;5104985;28;20619;-86
2021/03/11 10:58:42;;;;;;;30.35;5.38;;;13.50;99.90;;;;;;5104142;28;20209;-82
2021/03/11 11:01:11;;;;;;;26.33;5.18;;;13.40;99.90;;;;;;5099710;28;20313;-84
2021/03/11 11:03:38;;;;;;;21.25;4.45;;;13.70;99.90;;;;;;5101201;28;20214;-83
2021/03/11 11:06:05;;;;;;;22.15;4.72;;;13.70;99.90;;;;;;5099540;28;20203;-84
2021/03/11 11:08:33;;;;;;;21.50;4.90;;;13.90;99.90;;;;;;5103601;28;20292;-84
2021/03/11 11:11:01;;;;;;;20.70;4.35;;;13.60;99.90;;;;;;5101048;28;20202;-83
2021/03/11 11:13:28;;;;;;;17.55;4.05;;;13.60;99.90;;;;;;5099387;28;20292;-83
2021/03/11 11:15:54;;;;;;;29.40;5.00;;;13.80;99.90;;;;;;5100483;28;20202;-82
2021/03/11 11:18:20;;;;;;;16.55;4.30;;;13.90;99.90;;;;;;5099376;28;20206;-86
2021/03/11 11:20:48;;;;;;;21.40;4.20;;;13.80;99.90;;;;;;5101522;28;20304;-82
2021/03/11 11:23:16;;;;;;;17.45;3.97;;;13.80;99.90;;;;;;5101726;28;20206;-88
2021/03/11 11:25:42;;;;;;;17.02;4.18;;;13.90;99.90;;;;;;5105736;28;20660;-83
2021/03/11 11:28:09;;;;;;;21.10;4.30;;;13.90;99.90;;;;;;5102843;28;20206;-82
2021/03/11 11:30:35;;;;;;;21.98;4.38;;;14.10;99.90;;;;;;5099419;28;20648;-82
2021/03/11 11:33:02;;;;;;;13.40;3.83;;;14.30;99.90;;;;;;5103410;28;20630;-82
2021/03/11 11:35:28;;;;;;;18.75;4.30;;;14.10;99.90;;;;;;5100179;28;20215;-84
2021/03/11 11:37:55;;;;;;;24.40;4.60;;;14.00;99.90;;;;;;5095971;28;20305;-84
2021/03/11 11:40:22;;;;;;;21.08;4.55;;;14.20;99.90;;;;;;5099435;28;20214;-85
2021/03/11 11:42:49;;;;;;;18.08;3.92;;;14.20;99.90;;;;;;5099896;28;20233;-88
2021/03/11 11:45:16;;;;;;;15.77;3.85;;;14.10;99.90;;;;;;5100908;28;20580;-82
2021/03/11 11:47:42;;;;;;;16.17;3.30;;;14.00;99.90;;;;;;5099660;28;20228;-86
2021/03/11 11:50:11;;;;;;;14.85;3.70;;;13.90;99.90;;;;;;5094315;28;20202;-87
2021/03/11 11:52:38;;;;;;;18.63;4.18;;;13.90;99.90;;;;;;5093659;28;20198;-83
2021/03/11 11:55:07;;;;;;;15.77;3.85;;;14.00;99.90;;;;;;5094396;28;20284;-84
2021/03/11 11:57:34;;;;;;;13.25;4.00;;;14.20;99.90;;;;;;5094743;28;20194;-82
2021/03/11 12:00:00;;;;;;;20.05;4.25;;;14.00;99.90;;;;;;5094955;28;20732;-81
2021/03/11 12:02:27;;;;;;;18.95;3.47;;;13.90;99.90;;;;;;5094726;28;20270;-83
2021/03/11 12:04:54;;;;;;;12.32;4.03;;;13.80;99.90;;;;;;5096106;28;20243;-86
2021/03/11 12:07:21;;;;;;;17.77;4.25;;;13.60;99.90;;;;;;5097872;28;20201;-86
2021/03/11 12:09:55;;;;;;;15.82;3.60;;;13.60;99.90;;;;;;5103071;28;20210;-84
2021/03/11 12:12:23;;;;;;;14.27;4.43;;;13.70;99.90;;;;;;5095125;28;20202;-83
2021/03/11 12:14:49;;;;;;;16.02;4.18;;;13.60;99.90;;;;;;5091719;28;20213;-85
2021/03/11 12:17:16;;;;;;;13.82;3.72;;;13.60;99.90;;;;;;5093813;28;20237;-84
2021/03/11 12:19:45;;;;;;;16.13;3.63;;;13.60;99.90;;;;;;5100950;28;20229;-86
2021/03/11 12:22:11;;;;;;;16.45;4.55;;;13.60;99.90;;;;;;5100088;28;20193;-85
2021/03/11 12:24:38;;;;;;;19.77;4.13;;;13.60;99.90;;;;;;5099560;28;21327;-83
2021/03/11 12:27:04;;;;;;;15.90;4.10;;;13.60;99.90;;;;;;5101866;28;20205;-85
2021/03/11 12:29:37;;;;;;;16.80;3.92;;;13.70;99.90;;;;;;5100726;28;20213;-84
2021/03/11 12:32:04;;;;;;;15.48;4.28;;;13.70;99.90;;;;;;5100574;28;20223;-83
2021/03/11 12:34:31;;;;;;;13.02;3.47;;;13.90;99.90;;;;;;5098698;28;20205;-84
2021/03/11 12:36:57;;;;;;;22.00;4.75;;;13.70;99.90;;;;;;5092608;28;20206;-84
2021/03/11 12:39:23;;;;;;;14.05;3.35;;;13.70;99.90;;;;;;5092352;28;20274;-82
2021/03/11 12:41:50;;;;;;;15.80;3.70;;;13.60;99.90;;;;;;5093612;28;20198;-82
2021/03/11 12:44:16;;;;;;;18.27;3.78;;;13.40;99.90;;;;;;5093077;28;20202;-81
2021/03/11 12:46:43;;;;;;;10.98;3.42;;;13.50;99.90;;;;;;5093246;28;20204;-80
2021/03/11 12:49:10;;;;;;;20.70;4.05;;;13.70;99.90;;;;;;5091844;28;20284;-83
2021/03/11 12:51:36;;;;;;;14.68;3.65;;;13.90;99.90;;;;;;5092978;28;20216;-82